Rye Valley, Oregon
Current Conditions -  °F | °C
As of 5:53 AM on Saturday 22 Nov 2014 (Local Time) from KBKE Reporting Station
Haze Haze  
Wind Chill: 33°   Ceiling: 6000
Heat Index: 33°   Visibility: 4mi
Dew Point: 32°   Wind: 0mph
Humidity: 96%   Direction: NA
Pressure: 29.64"   Gusts: NA
Location:  44.4221°N, 117.451°W
Report Text: KBKE 221353Z AUTO 00000KT 4SM BR FEW004 BKN060 OVC120 01/00 A2964 RMK AO2 SLP056 T00060000
Loading
Personal Weather Stations






























Interactive Weather Map New forecast layout! Learn more

10-Day Weather Forecast

Advertisements
Track Severe Weather on mobile